createdAt,value
2018-12-10T00:01:05.835Z,99856.86
2018-12-10T00:03:34.584Z,99861.69
2018-12-10T00:06:02.367Z,99865.03
2018-12-10T00:08:30.141Z,99877.43
2018-12-10T00:10:57.819Z,99882.88
2018-12-10T00:13:25.583Z,99890.27
2018-12-10T00:15:53.347Z,99896.48
2018-12-10T00:18:20.994Z,99893.81
2018-12-10T00:20:48.702Z,99897.62
2018-12-10T00:23:17.004Z,99892.17
2018-12-10T00:25:44.759Z,99898.98
2018-12-10T00:28:12.622Z,99906.07
2018-12-10T00:30:40.389Z,99905.52
2018-12-10T00:33:08.768Z,99901.75
2018-12-10T00:35:36.716Z,99911.28
2018-12-10T00:38:04.388Z,99917.55
2018-12-10T00:40:32.045Z,99930.34
2018-12-10T00:43:00.557Z,99935.20
2018-12-10T00:45:28.354Z,99932.63
2018-12-10T00:47:56.255Z,99951.18
2018-12-10T00:50:24.034Z,99957.71
2018-12-10T00:52:51.733Z,99947.13
2018-12-10T00:55:19.446Z,99951.45
2018-12-10T00:57:47.234Z,99961.89
2018-12-10T01:00:15.090Z,99974.98
2018-12-10T01:02:43.447Z,99971.98
2018-12-10T01:05:11.976Z,99977.16
2018-12-10T01:07:39.879Z,99981.48
2018-12-10T01:10:07.676Z,99987.52
2018-12-10T01:12:35.460Z,99995.43
2018-12-10T01:15:03.679Z,99989.48
2018-12-10T01:17:32.480Z,99997.62
2018-12-10T01:20:00.119Z,100000.05
2018-12-10T01:22:28.437Z,100011.54
2018-12-10T01:24:56.523Z,100016.70
2018-12-10T01:27:24.169Z,100024.25
2018-12-10T01:29:51.799Z,100028.88
2018-12-10T01:32:19.467Z,100035.42
2018-12-10T01:34:47.099Z,100038.70
2018-12-10T01:37:14.820Z,100030.81
2018-12-10T01:39:42.490Z,100034.39
2018-12-10T01:42:10.087Z,100042.28
2018-12-10T01:44:37.745Z,100044.14
2018-12-10T01:47:05.471Z,100044.75
2018-12-10T01:49:33.333Z,100051.28
2018-12-10T01:52:00.962Z,100057.81
2018-12-10T01:54:29.024Z,100059.44
2018-12-10T01:56:57.755Z,100059.41
2018-12-10T01:59:25.614Z,100063.78
2018-12-10T02:01:53.280Z,100071.64
2018-12-10T02:04:21.963Z,100066.50
2018-12-10T02:06:50.208Z,100078.22
2018-12-10T02:09:18.108Z,100074.67
2018-12-10T02:11:45.833Z,100079.30
2018-12-10T02:14:13.579Z,100080.93
2018-12-10T02:16:41.363Z,100085.55
2018-12-10T02:19:09.483Z,100092.90
2018-12-10T02:21:37.232Z,100080.38
2018-12-10T02:24:05.101Z,100085.55
2018-12-10T02:26:32.852Z,100090.70
2018-12-10T02:29:06.065Z,100081.22
2018-12-10T02:31:33.766Z,100082.56
2018-12-10T02:34:01.431Z,100099.41
2018-12-10T02:36:29.119Z,100102.70
2018-12-10T02:38:56.873Z,100099.41
2018-12-10T02:41:24.675Z,100107.84
2018-12-10T02:43:54.020Z,100110.28
2018-12-10T02:46:21.779Z,100113.82
2018-12-10T02:48:49.440Z,100112.47
2018-12-10T02:51:17.732Z,100114.66
2018-12-10T02:53:45.733Z,100108.38
2018-12-10T02:56:13.499Z,100124.16
2018-12-10T02:58:41.127Z,100119.27
2018-12-10T03:01:08.842Z,100120.91
2018-12-10T03:03:37.224Z,100135.33
2018-12-10T03:06:04.985Z,100116.53
2018-12-10T03:08:33.465Z,100127.43
2018-12-10T03:11:01.232Z,100120.92
2018-12-10T03:13:28.936Z,100128.77
2018-12-10T03:15:56.601Z,100127.97
2018-12-10T03:18:24.511Z,100132.05
2018-12-10T03:20:52.927Z,100142.92
2018-12-10T03:23:21.602Z,100153.24
2018-12-10T03:25:50.357Z,100143.73
2018-12-10T03:28:18.239Z,100155.14
2018-12-10T03:30:45.876Z,100154.36
2018-12-10T03:33:14.085Z,100157.34
2018-12-10T03:35:41.802Z,100176.64
2018-12-10T03:38:09.439Z,100169.84
2018-12-10T03:40:37.373Z,100172.81
2018-12-10T03:43:05.849Z,100176.63
2018-12-10T03:45:33.704Z,100176.91
2018-12-10T03:48:02.053Z,100180.45
2018-12-10T03:50:29.879Z,100180.44
2018-12-10T03:52:58.208Z,100191.31
2018-12-10T03:55:26.111Z,100197.30
2018-12-10T03:57:53.856Z,100199.75
2018-12-10T04:00:21.488Z,100198.11
2018-12-10T04:02:49.153Z,100207.38
2018-12-10T04:05:16.849Z,100218.80
2018-12-10T04:07:44.540Z,100225.60
2018-12-10T04:10:12.107Z,100227.22
2018-12-10T04:12:39.835Z,100227.23
2018-12-10T04:15:07.613Z,100238.10
2018-12-10T04:17:35.779Z,100232.66
2018-12-10T04:20:04.451Z,100240.02
2018-12-10T04:22:32.127Z,100242.72
2018-12-10T04:24:59.708Z,100237.00
2018-12-10T04:27:27.434Z,100237.84
2018-12-10T04:29:55.104Z,100245.45
2018-12-10T04:32:22.777Z,100249.26
2018-12-10T04:34:50.375Z,100242.18
2018-12-10T04:37:18.066Z,100250.34
2018-12-10T04:39:45.772Z,100246.54
2018-12-10T04:42:13.524Z,100250.60
2018-12-10T04:44:41.773Z,100254.70
2018-12-10T04:47:09.624Z,100263.14
2018-12-10T04:49:38.044Z,100264.74
2018-12-10T04:52:05.700Z,100263.95
2018-12-10T04:54:34.152Z,100265.02
2018-12-10T04:57:01.800Z,100267.76
2018-12-10T04:59:29.444Z,100272.12
2018-12-10T05:01:57.144Z,100278.64
2018-12-10T05:04:27.952Z,100286.23
2018-12-10T05:06:55.919Z,100296.02
2018-12-10T05:09:24.190Z,100302.27
2018-12-10T05:11:52.536Z,100298.73
2018-12-10T05:14:20.297Z,100305.00
2018-12-10T05:16:47.995Z,100315.59
2018-12-10T05:19:15.651Z,100311.80
2018-12-10T05:21:43.367Z,100320.25
2018-12-10T05:24:11.055Z,100321.86
2018-12-10T05:26:38.697Z,100321.03
2018-12-10T05:29:06.443Z,100330.30
2018-12-10T05:31:34.183Z,100319.42
2018-12-10T05:34:02.515Z,100321.28
2018-12-10T05:36:30.453Z,100327.84
2018-12-10T05:38:58.026Z,100333.25
2018-12-10T05:41:25.693Z,100330.28
2018-12-10T05:43:53.772Z,100337.07
2018-12-10T05:46:21.395Z,100333.55
2018-12-10T05:48:49.618Z,100338.74
2018-12-10T05:51:17.368Z,100343.61
2018-12-10T05:53:45.385Z,100346.30
2018-12-10T05:56:13.064Z,100358.27
2018-12-10T05:58:40.959Z,100350.39
2018-12-10T06:01:08.606Z,100362.61
2018-12-10T06:03:36.246Z,100362.89
2018-12-10T06:06:03.947Z,100360.44
2018-12-10T06:08:31.605Z,100361.53
2018-12-10T06:10:59.894Z,100369.89
2018-12-10T06:13:27.532Z,100365.03
2018-12-10T06:15:55.321Z,100368.28
2018-12-10T06:18:23.778Z,100384.02
2018-12-10T06:20:51.519Z,100365.28
2018-12-10T06:23:19.239Z,100382.41
2018-12-10T06:25:47.507Z,100387.83
2018-12-10T06:28:15.155Z,100377.42
2018-12-10T06:30:42.814Z,100391.27
2018-12-10T06:33:10.612Z,100390.78
2018-12-10T06:35:38.307Z,100400.24
2018-12-10T06:38:05.954Z,100386.91
2018-12-10T06:40:33.666Z,100404.55
2018-12-10T06:43:01.463Z,100400.38
2018-12-10T06:45:29.619Z,100408.59
2018-12-10T06:47:58.425Z,100415.41
2018-12-10T06:50:26.339Z,100428.72
2018-12-10T06:52:54.019Z,100420.25
2018-12-10T06:55:21.739Z,100414.84
2018-12-10T06:57:50.372Z,100427.30
2018-12-10T07:00:18.211Z,100431.30
2018-12-10T07:02:45.868Z,100445.20
2018-12-10T07:05:13.574Z,100453.67
2018-12-10T07:07:41.527Z,100464.07
2018-12-10T07:10:09.300Z,100450.13
2018-12-10T07:12:37.106Z,100447.38
2018-12-10T07:15:05.836Z,100458.60
2018-12-10T07:17:33.479Z,100464.61
2018-12-10T07:20:01.123Z,100452.38
2018-12-10T07:22:28.816Z,100458.32
2018-12-10T07:24:56.441Z,100461.35
2018-12-10T07:27:24.371Z,100468.90
2018-12-10T07:29:52.227Z,100463.31
2018-12-10T07:32:20.793Z,100471.15
2018-12-10T07:34:48.683Z,100469.34
2018-12-10T07:37:16.603Z,100480.38
2018-12-10T07:39:44.695Z,100476.61
2018-12-10T07:42:12.393Z,100479.39
2018-12-10T07:44:40.924Z,100486.22
2018-12-10T07:47:08.589Z,100481.52
2018-12-10T07:49:36.411Z,100488.84
2018-12-10T07:52:04.070Z,100475.16
2018-12-10T07:54:31.917Z,100483.59
2018-12-10T07:56:59.586Z,100488.74
2018-12-10T07:59:27.556Z,100475.73
2018-12-10T08:01:55.258Z,100481.63
2018-12-10T08:04:22.959Z,100485.70
2018-12-10T08:06:50.655Z,100492.56
2018-12-10T08:09:18.603Z,100488.27
2018-12-10T08:11:46.587Z,100490.17
2018-12-10T08:14:14.708Z,100488.78
2018-12-10T08:16:42.518Z,100489.56
2018-12-10T08:19:10.961Z,100499.43
2018-12-10T08:21:39.074Z,100488.94
2018-12-10T08:24:06.896Z,100485.52
2018-12-10T08:26:34.547Z,100499.14
2018-12-10T08:29:07.464Z,100494.56
2018-12-10T08:31:32.452Z,100499.14
2018-12-10T08:34:00.237Z,100502.44
2018-12-10T08:36:28.103Z,100504.58
2018-12-10T08:38:56.180Z,100518.37
2018-12-10T08:41:23.863Z,100509.38
2018-12-10T08:43:51.611Z,100517.69
2018-12-10T08:46:19.330Z,100516.00
2018-12-10T08:48:47.196Z,100526.53
2018-12-10T08:51:15.023Z,100526.04
2018-12-10T08:53:42.800Z,100525.71
2018-12-10T08:56:10.604Z,100532.49
2018-12-10T08:58:38.246Z,100524.84
2018-12-10T09:01:05.928Z,100532.20
2018-12-10T09:03:33.560Z,100533.65
2018-12-10T09:06:01.465Z,100542.13
2018-12-10T09:08:29.107Z,100536.50
2018-12-10T09:10:56.779Z,100533.28
2018-12-10T09:13:24.438Z,100534.55
2018-12-10T09:15:52.118Z,100534.26
2018-12-10T09:18:20.008Z,100533.33
2018-12-10T09:20:48.166Z,100533.72
2018-12-10T09:23:16.143Z,100533.16
2018-12-10T09:25:43.960Z,100534.61
2018-12-10T09:28:19.436Z,100538.25
2018-12-10T09:30:42.355Z,100553.14
2018-12-10T09:33:10.092Z,100549.47
2018-12-10T09:35:37.878Z,100566.30
2018-12-10T09:38:05.544Z,100558.33
2018-12-10T09:40:33.457Z,100553.94
2018-12-10T09:43:01.431Z,100574.86
2018-12-10T09:45:29.300Z,100569.73
2018-12-10T09:47:57.663Z,100579.70
2018-12-10T09:50:25.498Z,100587.20
2018-12-10T09:52:53.360Z,100587.39
2018-12-10T09:55:21.179Z,100581.25
2018-12-10T09:57:49.922Z,100586.84
2018-12-10T10:00:18.387Z,100579.70
2018-12-10T10:02:46.365Z,100588.63
2018-12-10T10:05:14.275Z,100584.41
2018-12-10T10:07:42.104Z,100589.64
2018-12-10T10:10:10.132Z,100591.73
2018-12-10T10:12:37.994Z,100588.63
2018-12-10T10:15:05.787Z,100582.91
2018-12-10T10:17:33.460Z,100549.84
2018-12-10T10:20:01.367Z,100581.34
2018-12-10T10:22:29.410Z,100585.66
2018-12-10T10:24:57.096Z,100588.83
2018-12-10T10:27:25.116Z,100529.55
2018-12-10T10:29:52.794Z,100578.73
2018-12-10T10:32:20.696Z,100586.17
2018-12-10T10:34:48.576Z,100518.84
2018-12-10T10:37:16.631Z,100542.27
2018-12-10T10:39:44.802Z,100552.63
2018-12-10T10:42:13.805Z,100553.61
2018-12-10T10:44:42.275Z,100567.39
2018-12-10T10:47:10.063Z,100598.36
2018-12-10T10:49:38.140Z,100577.34
2018-12-10T10:52:05.935Z,100572.36
2018-12-10T10:54:34.387Z,100573.97
2018-12-10T10:57:02.176Z,100586.47
2018-12-10T10:59:29.988Z,100587.72
2018-12-10T11:01:59.725Z,100591.11
2018-12-10T11:04:27.597Z,100580.19
2018-12-10T11:06:56.161Z,100591.65
2018-12-10T11:09:24.302Z,100602.44
2018-12-10T11:11:52.072Z,100580.02
2018-12-10T11:14:19.797Z,100586.90
2018-12-10T11:16:47.711Z,100599.45
2018-12-10T11:19:16.075Z,100588.28
2018-12-10T11:21:44.658Z,100595.47
2018-12-10T11:24:13.556Z,100599.50
2018-12-10T11:26:41.412Z,100586.00
2018-12-10T11:29:09.905Z,100588.20
2018-12-10T11:31:37.870Z,100596.14
2018-12-10T11:34:06.088Z,100590.70
2018-12-10T11:36:34.532Z,100587.52
2018-12-10T11:39:04.232Z,100591.57
2018-12-10T11:41:32.098Z,100583.74
2018-12-10T11:44:00.123Z,100594.06
2018-12-10T11:46:28.012Z,100598.09
2018-12-10T11:48:55.936Z,100594.55
2018-12-10T11:51:23.769Z,100595.48
2018-12-10T11:53:51.377Z,100590.72
2018-12-10T11:56:19.177Z,100597.58
2018-12-10T11:58:47.223Z,100593.76
2018-12-10T12:01:14.920Z,100574.69
2018-12-10T12:03:42.783Z,100588.84
2018-12-10T12:06:10.849Z,100597.68
2018-12-10T12:08:38.883Z,100587.83
2018-12-10T12:11:07.219Z,100597.14
2018-12-10T12:13:35.063Z,100606.05
2018-12-10T12:16:02.839Z,100596.25
2018-12-10T12:18:30.745Z,100590.03
2018-12-10T12:20:58.684Z,100591.94
2018-12-10T12:23:27.308Z,100591.65
2018-12-10T12:25:56.889Z,100595.52
2018-12-10T12:28:24.767Z,100589.37
2018-12-10T12:30:53.051Z,100593.27
2018-12-10T12:33:21.526Z,100595.32
2018-12-10T12:35:49.896Z,100599.66
2018-12-10T12:38:17.709Z,100596.98
2018-12-10T12:40:45.512Z,100583.33
2018-12-10T12:43:16.266Z,100595.09
2018-12-10T12:45:42.952Z,100587.75
2018-12-10T12:48:10.968Z,100593.21
2018-12-10T12:50:38.618Z,100587.19
2018-12-10T12:53:07.178Z,100571.14
2018-12-10T12:55:35.601Z,100582.28
2018-12-10T12:58:03.407Z,100586.39
2018-12-10T13:00:31.088Z,100595.06
2018-12-10T13:02:58.990Z,100589.05
2018-12-10T13:05:26.860Z,100584.69
2018-12-10T13:07:54.704Z,100591.46
2018-12-10T13:10:22.607Z,100585.52
2018-12-10T13:12:50.435Z,100586.56
2018-12-10T13:15:18.336Z,100587.06
2018-12-10T13:17:46.804Z,100580.84
2018-12-10T13:20:14.675Z,100575.68
2018-12-10T13:22:47.280Z,100570.97
2018-12-10T13:25:13.874Z,100592.77
2018-12-10T13:27:43.503Z,100592.77
2018-12-10T13:30:11.399Z,100587.27
2018-12-10T13:32:40.339Z,100586.41
2018-12-10T13:35:08.214Z,100572.55
2018-12-10T13:37:35.939Z,100588.11
2018-12-10T13:40:05.482Z,100586.72
2018-12-10T13:42:33.077Z,100588.11
2018-12-10T13:45:00.872Z,100581.88
2018-12-10T13:47:28.866Z,100577.52
2018-12-10T13:49:57.271Z,100579.13
2018-12-10T13:52:25.648Z,100591.15
2018-12-10T13:54:54.169Z,100598.73
2018-12-10T13:57:22.079Z,100586.28
2018-12-10T13:59:50.785Z,100593.59
2018-12-10T14:02:18.654Z,100602.03
2018-12-10T14:04:47.683Z,100615.63
2018-12-10T14:07:15.650Z,100600.61
2018-12-10T14:09:43.477Z,100609.59
2018-12-10T14:12:15.439Z,100610.34
2018-12-10T14:14:43.266Z,100618.50
2018-12-10T14:17:11.190Z,100611.52
2018-12-10T14:19:40.952Z,100611.41
2018-12-10T14:22:09.270Z,100614.73
2018-12-10T14:24:37.582Z,100612.84
2018-12-10T14:27:06.022Z,100613.02
2018-12-10T14:29:33.718Z,100614.13
2018-12-10T14:32:01.546Z,100617.64
2018-12-10T14:34:29.577Z,100613.52
2018-12-10T14:36:57.852Z,100606.94
2018-12-10T14:39:26.183Z,100606.36
2018-12-10T14:41:54.040Z,100619.17
2018-12-10T14:44:22.078Z,100618.92
2018-12-10T14:46:50.672Z,100618.09
2018-12-10T14:49:18.739Z,100614.19
2018-12-10T14:51:46.452Z,100618.55
2018-12-10T14:54:14.450Z,100610.94
2018-12-10T14:56:42.420Z,100605.17
2018-12-10T14:59:10.255Z,100603.64
2018-12-10T15:01:37.951Z,100601.05
2018-12-10T15:04:06.014Z,100602.41
2018-12-10T15:06:34.135Z,100602.70
2018-12-10T15:09:02.005Z,100606.86
2018-12-10T15:11:29.842Z,100602.16
2018-12-10T15:13:58.512Z,100604.96
2018-12-10T15:16:26.393Z,100604.92
2018-12-10T15:18:54.292Z,100591.83
2018-12-10T15:21:23.437Z,100599.11
2018-12-10T15:23:51.648Z,100598.00
2018-12-10T15:26:20.350Z,100592.60
2018-12-10T15:28:48.218Z,100596.14
2018-12-10T15:31:16.639Z,100598.78
2018-12-10T15:33:44.559Z,100597.72
2018-12-10T15:36:12.631Z,100600.27
2018-12-10T15:38:40.456Z,100604.06
2018-12-10T15:41:09.275Z,100600.84
2018-12-10T15:43:37.112Z,100609.82
2018-12-10T15:46:04.914Z,100609.53
2018-12-10T15:48:32.988Z,100606.77
2018-12-10T15:51:01.057Z,100598.00
2018-12-10T15:53:30.331Z,100598.25
2018-12-10T16:02:26.782Z,100592.73
2018-12-10T16:04:55.318Z,100598.45
2018-12-10T16:07:23.388Z,100595.23
2018-12-10T16:09:51.255Z,100603.09
2018-12-10T16:12:20.304Z,100602.28
2018-12-10T16:14:48.850Z,100604.26
2018-12-10T16:17:16.634Z,100605.28
2018-12-10T16:19:46.218Z,100607.38
2018-12-10T16:22:14.119Z,100616.84
2018-12-10T16:24:42.164Z,100608.59
2018-12-10T16:27:10.237Z,100612.55
2018-12-10T16:29:38.291Z,100611.62
2018-12-10T16:32:06.615Z,100609.73
2018-12-10T16:34:34.506Z,100609.39
2018-12-10T16:37:03.318Z,100616.33
2018-12-10T16:39:31.151Z,100616.09
2018-12-10T16:41:59.119Z,100613.28
2018-12-10T16:44:27.239Z,100598.81
2018-12-10T16:46:55.219Z,100600.76
2018-12-10T16:49:23.469Z,100613.98
2018-12-10T16:51:51.303Z,100601.05
2018-12-10T16:54:19.394Z,100602.89
2018-12-10T16:56:47.682Z,100611.39
2018-12-10T16:59:15.340Z,100604.55
2018-12-10T17:01:43.848Z,100594.47
2018-12-10T17:04:12.204Z,100592.56
2018-12-10T17:06:40.561Z,100595.34
2018-12-10T17:09:10.449Z,100597.75
2018-12-10T17:11:38.800Z,100597.69
2018-12-10T17:14:06.788Z,100604.20
2018-12-10T17:16:34.939Z,100588.67
2018-12-10T17:19:03.335Z,100577.81
2018-12-10T17:21:31.626Z,100578.24
2018-12-10T17:23:59.357Z,100578.77
2018-12-10T17:26:27.396Z,100588.32
2018-12-10T17:28:55.891Z,100595.88
2018-12-10T17:31:24.492Z,100584.53
2018-12-10T17:33:52.423Z,100583.23
2018-12-10T17:36:20.389Z,100587.32
2018-12-10T17:38:48.693Z,100593.88
2018-12-10T17:41:16.813Z,100585.39
2018-12-10T17:43:44.948Z,100591.69
2018-12-10T17:46:12.847Z,100591.39
2018-12-10T17:48:41.945Z,100585.19
2018-12-10T17:51:10.125Z,100571.61
2018-12-10T17:53:38.467Z,100575.16
2018-12-10T17:56:06.482Z,100582.52
2018-12-10T17:58:34.786Z,100578.56
2018-12-10T18:01:03.476Z,100569.88
2018-12-10T18:03:32.208Z,100590.54
2018-12-10T18:06:01.016Z,100578.27
2018-12-10T18:08:28.838Z,100579.33
2018-12-10T18:10:56.476Z,100599.99
2018-12-10T18:13:25.267Z,100580.70
2018-12-10T18:15:53.255Z,100586.45
2018-12-10T18:18:21.098Z,100583.45
2018-12-10T18:20:49.379Z,100589.37
2018-12-10T18:23:17.328Z,100587.05
2018-12-10T18:25:45.418Z,100597.32
2018-12-10T18:28:13.474Z,100586.75
2018-12-10T18:30:41.572Z,100588.65
2018-12-10T18:33:09.840Z,100577.69
2018-12-10T18:35:37.883Z,100572.59
2018-12-10T18:38:05.774Z,100571.19
2018-12-10T18:40:34.239Z,100566.59
2018-12-10T18:43:02.897Z,100572.88
2018-12-10T18:45:31.124Z,100568.00
2018-12-10T18:47:59.095Z,100571.23
2018-12-10T18:50:27.347Z,100563.03
2018-12-10T18:52:56.854Z,100570.42
2018-12-10T18:55:25.058Z,100570.03
2018-12-10T18:57:53.515Z,100566.19
2018-12-10T19:00:21.414Z,100571.52
2018-12-10T19:02:49.619Z,100569.02
2018-12-10T19:05:17.625Z,100565.17
2018-12-10T19:07:46.334Z,100562.80
2018-12-10T19:10:15.839Z,100553.44
2018-12-10T19:12:47.398Z,100563.72
2018-12-10T19:15:15.444Z,100559.70
2018-12-10T19:17:43.557Z,100550.72
2018-12-10T19:20:13.699Z,100565.96
2018-12-10T19:22:41.875Z,100548.30
2018-12-10T19:25:09.781Z,100545.34
2018-12-10T19:27:38.560Z,100553.02
2018-12-10T19:30:07.561Z,100553.59
2018-12-10T19:32:35.575Z,100545.73
2018-12-10T19:35:04.008Z,100561.16
2018-12-10T19:37:36.214Z,100557.08
2018-12-10T19:40:06.307Z,100564.70
2018-12-10T19:42:34.937Z,100563.41
2018-12-10T19:45:04.142Z,100567.27
2018-12-10T19:47:32.067Z,100562.07
2018-12-10T19:50:00.913Z,100561.84
2018-12-10T19:52:28.901Z,100565.15
2018-12-10T19:54:56.775Z,100561.61
2018-12-10T19:57:25.147Z,100557.45
2018-12-10T19:59:52.859Z,100558.28
2018-12-10T20:02:20.789Z,100546.89
2018-12-10T20:04:48.648Z,100557.70
2018-12-10T20:07:16.380Z,100547.52
2018-12-10T20:09:44.493Z,100553.27
2018-12-10T20:12:12.205Z,100555.16
2018-12-10T20:14:40.012Z,100553.19
2018-12-10T20:17:08.311Z,100554.64
2018-12-10T20:19:36.363Z,100556.30
2018-12-10T20:22:04.801Z,100551.14
2018-12-10T20:24:32.577Z,100554.41
2018-12-10T20:27:00.288Z,100546.36
2018-12-10T20:29:29.014Z,100560.18
2018-12-10T20:31:56.965Z,100557.32
2018-12-10T20:34:24.782Z,100546.42
2018-12-10T20:36:52.626Z,100541.16
2018-12-10T20:39:20.372Z,100543.39
2018-12-10T20:41:48.352Z,100550.96
2018-12-10T20:44:16.759Z,100551.54
2018-12-10T20:46:44.636Z,100552.56
2018-12-10T20:49:12.602Z,100560.48
2018-12-10T20:51:40.473Z,100558.86
2018-12-10T21:00:14.477Z,100575.52
2018-12-10T21:02:42.277Z,100575.16
2018-12-10T21:08:07.073Z,100577.52
2018-12-10T21:10:35.386Z,100573.17
2018-12-10T21:13:03.430Z,100575.16
2018-12-10T21:15:31.830Z,100568.73
2018-12-10T21:17:59.699Z,100572.79
2018-12-10T21:20:27.770Z,100579.75
2018-12-10T21:22:55.843Z,100571.95
2018-12-10T21:25:23.714Z,100571.33
2018-12-10T21:27:51.780Z,100572.54
2018-12-10T21:30:19.815Z,100580.25
2018-12-10T21:32:47.820Z,100572.38
2018-12-10T21:35:15.789Z,100578.89
2018-12-10T21:37:43.655Z,100577.41
2018-12-10T21:40:11.905Z,100577.88
2018-12-10T21:42:39.843Z,100575.58
2018-12-10T21:45:08.285Z,100583.50
2018-12-10T21:47:36.326Z,100577.86
2018-12-10T21:50:05.292Z,100588.03
2018-12-10T21:52:33.307Z,100578.36
2018-12-10T21:55:01.575Z,100577.29
2018-12-10T21:57:29.661Z,100584.36
2018-12-10T21:59:57.526Z,100578.47
2018-12-10T22:02:25.521Z,100575.84
2018-12-10T22:04:53.434Z,100581.98
2018-12-10T22:07:21.945Z,100580.88
2018-12-10T22:09:53.491Z,100582.23
2018-12-10T22:12:21.406Z,100580.23
2018-12-10T22:14:49.346Z,100577.52
2018-12-10T22:17:17.212Z,100586.61
2018-12-10T22:19:46.703Z,100588.19
2018-12-10T22:22:15.284Z,100578.64
2018-12-10T22:24:43.383Z,100588.80
2018-12-10T22:27:11.536Z,100582.56
2018-12-10T22:29:39.501Z,100590.02
2018-12-10T22:32:07.381Z,100586.57
2018-12-10T22:34:35.322Z,100583.18
2018-12-10T22:37:03.587Z,100580.71
2018-12-10T22:39:31.687Z,100584.84
2018-12-10T22:41:59.380Z,100582.36
2018-12-10T22:44:27.385Z,100581.78
2018-12-10T22:46:55.326Z,100563.26
2018-12-10T22:49:23.267Z,100582.08
2018-12-10T22:51:51.732Z,100577.00
2018-12-10T22:54:19.498Z,100587.84
2018-12-10T22:56:47.570Z,100568.84
2018-12-10T22:59:15.582Z,100583.59
2018-12-10T23:01:43.903Z,100582.63
2018-12-10T23:04:11.784Z,100582.11
2018-12-10T23:06:39.703Z,100577.00
2018-12-10T23:09:08.192Z,100574.25
2018-12-10T23:11:36.203Z,100571.30
2018-12-10T23:14:04.122Z,100567.76
2018-12-10T23:16:32.353Z,100577.34
2018-12-10T23:19:00.255Z,100577.64
2018-12-10T23:21:28.170Z,100573.03
2018-12-10T23:23:56.136Z,100574.44
2018-12-10T23:26:24.221Z,100570.08
2018-12-10T23:28:52.293Z,100571.97
2018-12-10T23:31:20.333Z,100577.16
2018-12-10T23:33:48.273Z,100573.95
2018-12-10T23:36:16.138Z,100572.84
2018-12-10T23:38:44.080Z,100568.71
2018-12-10T23:41:11.945Z,100558.97
2018-12-10T23:43:40.515Z,100575.02
2018-12-10T23:46:08.251Z,100577.98
2018-12-10T23:48:36.292Z,100573.21
2018-12-10T23:51:04.321Z,100580.01
2018-12-10T23:53:32.372Z,100588.06
2018-12-10T23:56:01.337Z,100580.20
2018-12-10T23:58:29.557Z,100576.09
